createdAt,value
2022-10-06T00:03:49.453Z,967.83
2022-10-06T00:18:51.711Z,967.89
2022-10-06T00:33:54.035Z,967.89
2022-10-06T00:48:56.196Z,967.99
2022-10-06T01:03:58.580Z,968.08
2022-10-06T01:19:00.909Z,968.12
2022-10-06T01:34:03.285Z,968.31
2022-10-06T01:49:05.544Z,968.54
2022-10-06T02:04:07.903Z,968.77
2022-10-06T02:19:10.240Z,969.01
2022-10-06T02:34:12.751Z,969.26
2022-10-06T02:49:15.047Z,969.59
2022-10-06T03:04:17.352Z,969.68
2022-10-06T03:19:19.641Z,969.84
2022-10-06T03:34:21.898Z,969.95
2022-10-06T03:49:24.342Z,970.08
2022-10-06T04:04:26.850Z,970.17
2022-10-06T04:19:29.166Z,970.28
2022-10-06T04:34:31.441Z,970.47
2022-10-06T04:49:33.739Z,970.55
2022-10-06T05:04:35.987Z,970.7
2022-10-06T05:19:38.305Z,970.92
2022-10-06T05:34:40.613Z,971.04
2022-10-06T05:49:42.902Z,971.13
2022-10-06T06:04:45.218Z,971.29
2022-10-06T06:19:47.588Z,971.37
2022-10-06T06:34:49.865Z,971.55
2022-10-06T06:49:52.184Z,971.6
2022-10-06T07:04:54.606Z,971.75
2022-10-06T07:19:56.897Z,971.9
2022-10-06T07:34:59.365Z,972.02
2022-10-06T07:50:01.720Z,972.15
2022-10-06T08:05:04.282Z,972.28
2022-10-06T08:20:06.559Z,972.43
2022-10-06T08:35:08.881Z,972.54
2022-10-06T08:50:11.184Z,972.58
2022-10-06T09:05:13.459Z,972.63
2022-10-06T09:20:15.814Z,972.8
2022-10-06T09:35:18.166Z,972.91
2022-10-06T09:50:20.549Z,972.95
2022-10-06T10:05:22.865Z,973.1
2022-10-06T10:20:25.232Z,973.13
2022-10-06T10:35:27.503Z,973.23
2022-10-06T10:50:29.827Z,973.18
2022-10-06T11:05:32.345Z,973.24
2022-10-06T11:20:34.625Z,973.26
2022-10-06T11:35:36.893Z,973.34
2022-10-06T11:50:39.195Z,973.36
2022-10-06T12:05:56.591Z,973.41
2022-10-06T12:20:59.600Z,973.52
2022-10-06T12:36:02.019Z,973.59
2022-10-06T12:51:04.304Z,973.67
2022-10-06T13:06:06.571Z,973.7
2022-10-06T13:21:08.995Z,973.78
2022-10-06T13:36:11.334Z,973.85
2022-10-06T13:51:13.633Z,973.92
2022-10-06T14:06:15.873Z,974.03
2022-10-06T14:21:18.167Z,974.2
2022-10-06T14:36:20.493Z,974.37
2022-10-06T14:51:22.786Z,974.49
2022-10-06T15:06:25.140Z,974.54
2022-10-06T15:21:27.435Z,974.65
2022-10-06T15:36:29.757Z,974.72
2022-10-06T15:51:32.010Z,974.7
2022-10-06T16:06:34.329Z,974.5
2022-10-06T16:21:36.864Z,974.96
2022-10-06T16:36:39.218Z,975.28
2022-10-06T16:51:41.806Z,974.54
2022-10-06T17:06:44.235Z,974.32
2022-10-06T17:21:47.685Z,974.19
2022-10-06T17:36:51.692Z,974.1
2022-10-06T17:51:54.199Z,973.92
2022-10-06T18:06:56.474Z,973.68
2022-10-06T18:21:58.766Z,973.57
2022-10-06T18:37:01.039Z,973.42
2022-10-06T18:52:03.362Z,973.16
2022-10-06T19:07:05.659Z,973
2022-10-06T19:22:07.944Z,972.87
2022-10-06T19:37:10.391Z,972.67
2022-10-06T19:52:12.740Z,972.46
2022-10-06T20:07:15.048Z,972.24
2022-10-06T20:22:17.371Z,972.03
2022-10-06T20:37:19.710Z,971.98
2022-10-06T20:52:22.080Z,971.78
2022-10-06T21:07:24.516Z,971.53
2022-10-06T21:22:27.145Z,971.35
2022-10-06T21:37:29.507Z,971.13
2022-10-06T21:52:31.802Z,970.98
2022-10-06T22:07:34.034Z,970.9
2022-10-06T22:22:36.413Z,970.76
2022-10-06T22:37:38.766Z,970.68
2022-10-06T22:52:40.990Z,970.57
2022-10-06T23:07:43.511Z,970.6
2022-10-06T23:22:45.938Z,970.57
2022-10-06T23:37:48.384Z,970.6
2022-10-06T23:52:50.706Z,970.57
